Time;durP1;ratioP1;P1;durP2;ratioP2;P2;SDS_P1;SDS_P2;PMS_P1;PMS_P2;Temp;Humidity;BMP_temperature;BMP_pressure;BME280_temperature;BME280_humidity;BME280_pressure;Samples;Min_cycle;Max_cycle;Signal;HPM_P1;HPM_P2
2022/03/31 00:00:50;;;;;;;41.22;30.85;;;5.30;99.90;;;4.84;100.00;95855.25;4999786;28;20052;-71
2022/03/31 00:03:19;;;;;;;47.78;33.85;;;5.30;99.90;;;4.75;100.00;95858.25;5001008;28;20503;-70
2022/03/31 00:05:48;;;;;;;52.53;35.42;;;5.20;99.90;;;4.49;100.00;95857.69;5002359;28;20156;-70
2022/03/31 00:08:18;;;;;;;52.75;35.95;;;5.10;99.90;;;4.39;100.00;95859.03;5003779;28;20044;-70
2022/03/31 00:10:52;;;;;;;56.33;38.30;;;5.00;99.90;;;4.45;100.00;95857.91;4998234;28;20129;-71
2022/03/31 00:13:27;;;;;;;47.17;34.13;;;5.00;99.90;;;4.48;100.00;95855.22;5015096;28;20512;-70
2022/03/31 00:15:56;;;;;;;57.78;37.20;;;5.00;99.90;;;4.41;100.00;95857.25;4999284;28;20058;-71
2022/03/31 00:18:26;;;;;;;60.58;38.97;;;4.90;99.90;;;4.32;100.00;95844.81;5000909;28;20061;-71
2022/03/31 00:20:53;;;;;;;52.85;35.75;;;4.90;99.90;;;4.20;100.00;95846.22;5001199;28;20508;-71
2022/03/31 00:23:21;;;;;;;46.33;32.60;;;4.80;99.90;;;4.12;100.00;95843.13;5000716;28;20046;-70
2022/03/31 00:25:48;;;;;;;44.90;30.83;;;4.70;99.90;;;4.08;100.00;95846.75;5001880;28;20164;-70
2022/03/31 00:28:16;;;;;;;40.30;28.85;;;4.70;99.90;;;4.08;100.00;95839.91;4996085;28;20061;-71
2022/03/31 00:30:43;;;;;;;42.88;30.42;;;4.60;99.90;;;4.04;100.00;95833.22;5002127;28;20107;-70
2022/03/31 00:33:10;;;;;;;68.57;42.75;;;4.60;99.90;;;4.01;100.00;95838.47;5002198;28;20058;-70
2022/03/31 00:35:38;;;;;;;48.25;33.97;;;4.50;99.90;;;4.10;100.00;95826.97;5003133;28;20104;-70
2022/03/31 00:38:05;;;;;;;41.95;30.13;;;4.60;99.90;;;4.13;100.00;95832.81;5002837;28;20077;-70
2022/03/31 00:40:33;;;;;;;47.92;31.38;;;4.60;99.90;;;4.05;100.00;95831.47;4998155;28;20041;-71
2022/03/31 00:43:00;;;;;;;38.38;27.20;;;4.50;99.90;;;3.92;100.00;95819.22;5001847;28;20137;-71
2022/03/31 00:45:46;;;;;;;36.78;25.80;;;4.40;99.90;;;4.05;100.00;95821.22;5001312;28;20129;-71
2022/03/31 00:48:16;;;;;;;44.70;29.40;;;4.40;99.90;;;4.05;100.00;95811.78;5006551;28;20115;-71
2022/03/31 00:50:43;;;;;;;51.13;29.73;;;4.40;99.90;;;3.88;100.00;95816.84;5005693;28;20050;-70
2022/03/31 00:53:11;;;;;;;38.88;27.30;;;4.40;99.90;;;3.80;100.00;95813.78;5006384;28;20088;-71
2022/03/31 00:55:59;;;;;;;38.70;27.00;;;4.30;99.90;;;3.86;100.00;95816.91;5006668;28;20530;-70
2022/03/31 00:58:26;;;;;;;40.30;28.65;;;4.30;99.90;;;3.70;100.00;95827.00;5005950;28;20091;-71
2022/03/31 01:00:53;;;;;;;45.58;29.80;;;4.20;99.90;;;3.80;100.00;95816.34;5008138;28;20044;-70
2022/03/31 01:03:21;;;;;;;41.05;29.73;;;4.20;99.90;;;3.85;100.00;95809.25;5004702;28;20476;-71
2022/03/31 01:05:48;;;;;;;45.90;32.05;;;4.20;99.90;;;3.75;100.00;95811.41;5013603;28;20046;-71
2022/03/31 01:08:15;;;;;;;47.05;30.80;;;4.20;99.90;;;3.81;100.00;95806.00;5006153;28;20129;-71
2022/03/31 01:10:43;;;;;;;46.47;29.92;;;4.20;99.90;;;3.67;100.00;95798.94;5004381;28;20476;-70
2022/03/31 01:13:10;;;;;;;47.92;32.20;;;4.20;99.90;;;3.61;100.00;95801.75;5006508;28;20081;-71
2022/03/31 01:15:37;;;;;;;42.80;29.00;;;4.10;99.90;;;3.63;100.00;95799.13;5003979;28;20130;-71
2022/03/31 01:18:05;;;;;;;50.47;33.40;;;4.10;99.90;;;3.57;100.00;95797.66;5006978;28;20592;-70
2022/03/31 01:20:33;;;;;;;46.10;31.15;;;4.00;99.90;;;3.49;100.00;95798.00;5000046;28;20497;-71
2022/03/31 01:23:01;;;;;;;43.05;29.90;;;4.00;99.90;;;3.55;100.00;95797.69;5006592;28;20125;-70
2022/03/31 01:25:28;;;;;;;52.15;33.58;;;4.00;99.90;;;3.59;100.00;95792.47;5009642;28;20100;-71
2022/03/31 01:27:55;;;;;;;46.25;30.05;;;4.10;99.90;;;3.65;100.00;95795.59;5023187;28;20069;-71
2022/03/31 01:30:23;;;;;;;45.45;30.15;;;4.10;99.90;;;3.75;100.00;95793.44;5002251;28;20084;-71
2022/03/31 01:32:52;;;;;;;39.50;27.73;;;4.10;99.90;;;3.77;100.00;95789.91;5004015;28;20093;-70
2022/03/31 01:35:19;;;;;;;39.78;27.33;;;4.20;99.90;;;3.81;100.00;95785.47;5005946;28;20136;-71
2022/03/31 01:37:47;;;;;;;49.85;32.58;;;4.30;99.90;;;3.69;100.00;95791.13;5007045;28;20045;-70
2022/03/31 01:40:15;;;;;;;48.60;30.83;;;4.30;99.90;;;3.67;100.00;95786.09;5010672;28;20084;-71
2022/03/31 01:42:43;;;;;;;49.40;33.97;;;4.20;99.90;;;3.83;100.00;95782.81;5003398;28;20089;-71
2022/03/31 01:45:15;;;;;;;56.40;33.75;;;4.30;99.90;;;3.87;100.00;95781.78;4993149;28;20077;-71
2022/03/31 01:47:42;;;;;;;52.42;34.22;;;4.40;99.90;;;3.84;100.00;95782.75;5009216;28;20369;-70
2022/03/31 01:50:10;;;;;;;51.13;34.78;;;4.40;99.90;;;3.87;100.00;95779.22;5004663;28;20050;-72
2022/03/31 01:52:38;;;;;;;48.80;32.50;;;4.40;99.90;;;3.88;100.00;95771.47;5006579;28;20072;-71
2022/03/31 01:55:07;;;;;;;52.75;34.67;;;4.40;99.90;;;3.78;100.00;95765.91;5017903;28;20074;-71
2022/03/31 01:57:35;;;;;;;45.97;30.80;;;4.40;99.90;;;3.74;100.00;95766.97;4987948;28;20070;-70
2022/03/31 02:00:05;;;;;;;44.47;30.58;;;4.40;99.90;;;3.83;100.00;95767.44;5003014;28;20077;-70
2022/03/31 02:02:32;;;;;;;56.45;35.20;;;4.30;99.90;;;3.67;100.00;95768.13;5004147;28;20052;-71
2022/03/31 02:04:59;;;;;;;57.50;37.28;;;4.20;99.90;;;3.66;100.00;95766.44;5004763;28;20037;-71
2022/03/31 02:07:26;;;;;;;62.20;38.20;;;4.20;99.90;;;3.66;100.00;95766.44;5008481;28;20138;-71
2022/03/31 02:09:53;;;;;;;72.55;41.05;;;4.20;99.90;;;3.73;100.00;95765.28;5007670;28;20133;-71
2022/03/31 02:12:21;;;;;;;60.00;38.70;;;4.20;99.90;;;3.63;100.00;95769.16;5018150;28;20148;-70
2022/03/31 02:14:48;;;;;;;50.63;34.13;;;4.20;99.90;;;3.56;100.00;95765.22;5005725;28;20076;-71
2022/03/31 02:17:17;;;;;;;77.38;46.85;;;4.20;99.90;;;3.52;100.00;95758.53;5003528;28;20085;-71
2022/03/31 02:19:44;;;;;;;57.65;35.30;;;4.10;99.90;;;3.59;100.00;95759.09;5007042;28;20084;-71
2022/03/31 02:22:11;;;;;;;59.70;37.45;;;4.10;99.90;;;3.68;100.00;95759.53;5004985;28;20054;-71
2022/03/31 02:24:38;;;;;;;51.97;33.90;;;4.20;99.90;;;3.74;100.00;95751.56;5006798;28;20052;-71
2022/03/31 02:27:06;;;;;;;55.88;35.47;;;4.30;99.90;;;3.81;100.00;95748.69;5008491;28;20125;-71
2022/03/31 02:29:33;;;;;;;56.42;35.20;;;4.30;99.90;;;3.81;100.00;95749.56;5004976;28;20069;-71
2022/03/31 02:32:00;;;;;;;58.55;39.00;;;4.40;99.90;;;4.07;100.00;95739.81;5001174;28;20168;-71
2022/03/31 02:34:27;;;;;;;66.13;35.20;;;4.50;99.90;;;4.22;100.00;95736.56;5006558;28;20049;-71
2022/03/31 02:36:54;;;;;;;50.72;30.67;;;4.60;99.90;;;4.39;100.00;95734.00;5007033;28;20092;-71
2022/03/31 02:39:21;;;;;;;51.17;30.17;;;4.80;99.90;;;4.49;100.00;95726.69;5004671;28;20200;-72
2022/03/31 02:41:48;;;;;;;54.45;32.90;;;4.90;99.90;;;4.64;100.00;95732.00;5003036;28;20129;-71
2022/03/31 02:44:16;;;;;;;53.15;31.63;;;5.00;99.90;;;4.79;100.00;95726.13;5020400;28;20049;-71
2022/03/31 02:46:43;;;;;;;47.03;31.33;;;5.20;99.90;;;4.82;100.00;95726.78;5009307;28;20050;-71
2022/03/31 02:49:11;;;;;;;51.03;30.40;;;5.30;99.90;;;4.81;100.00;95722.56;5005203;28;20054;-71
2022/03/31 02:51:38;;;;;;;50.25;30.67;;;5.30;99.90;;;4.86;100.00;95722.34;5007827;28;20051;-71
2022/03/31 02:56:54;;;;;;;43.88;27.98;;;5.40;99.90;;;4.98;100.00;95710.59;5005366;28;20132;-71
2022/03/31 02:59:22;;;;;;;38.13;25.30;;;5.50;99.90;;;5.18;100.00;95704.44;5003417;28;20471;-71
2022/03/31 03:01:49;;;;;;;42.17;26.67;;;5.60;99.90;;;5.07;100.00;95696.44;5007348;28;20052;-71
2022/03/31 03:04:17;;;;;;;42.83;29.17;;;5.60;99.90;;;5.06;100.00;95692.19;5002553;28;20061;-71
2022/03/31 03:06:44;;;;;;;42.55;27.63;;;5.60;99.90;;;5.06;100.00;95693.03;4998284;28;20046;-70
2022/03/31 03:09:11;;;;;;;40.65;27.60;;;5.60;99.90;;;5.13;100.00;95688.41;5004860;28;20141;-71
2022/03/31 03:11:38;;;;;;;51.92;30.95;;;5.60;99.90;;;5.13;100.00;95685.81;5001200;28;20118;-71
2022/03/31 03:14:06;;;;;;;42.80;27.67;;;5.60;99.90;;;5.17;100.00;95680.44;5007717;28;20054;-71
2022/03/31 03:16:34;;;;;;;41.47;26.58;;;5.60;99.90;;;5.17;100.00;95679.63;4999744;28;20071;-71
2022/03/31 03:19:01;;;;;;;37.97;24.60;;;5.70;99.90;;;5.25;100.00;95669.78;5000773;28;20134;-71
2022/03/31 03:21:28;;;;;;;51.25;32.28;;;5.70;99.90;;;5.22;100.00;95668.22;5003422;28;20050;-71
2022/03/31 03:23:55;;;;;;;42.72;28.85;;;5.70;99.90;;;5.22;100.00;95669.91;5016838;28;20466;-71
2022/03/31 03:26:22;;;;;;;39.10;24.55;;;5.70;99.90;;;5.14;100.00;95669.50;5003613;28;20049;-71
2022/03/31 03:28:49;;;;;;;38.92;25.92;;;5.70;99.90;;;5.17;100.00;95667.59;5006520;28;20507;-70
2022/03/31 03:31:16;;;;;;;37.17;24.35;;;5.70;99.90;;;5.30;100.00;95665.22;4998078;28;20084;-70
2022/03/31 03:33:43;;;;;;;39.60;26.17;;;5.70;99.90;;;5.17;100.00;95659.88;4999957;28;20068;-71
2022/03/31 03:36:12;;;;;;;47.83;29.05;;;5.70;99.90;;;4.98;100.00;95666.88;5000887;28;20129;-71
2022/03/31 03:38:43;;;;;;;33.63;22.08;;;5.60;99.90;;;5.06;100.00;95663.91;5006165;28;20123;-71
2022/03/31 03:41:12;;;;;;;35.95;23.05;;;5.50;99.90;;;5.22;100.00;95657.06;5006296;28;20123;-71
2022/03/31 03:43:42;;;;;;;34.55;22.80;;;5.50;99.90;;;5.15;100.00;95660.88;5002241;28;20085;-70
2022/03/31 03:46:10;;;;;;;30.65;21.50;;;5.50;99.90;;;5.27;100.00;95665.41;5020887;28;20133;-70
2022/03/31 03:48:37;;;;;;;55.45;36.08;;;5.60;99.90;;;4.94;100.00;95660.22;4998750;28;20475;-70
2022/03/31 03:51:06;;;;;;;78.35;47.53;;;5.60;99.90;;;5.03;100.00;95662.34;4996928;28;20135;-70
2022/03/31 03:53:34;;;;;;;54.80;36.22;;;5.60;99.90;;;5.05;100.00;95660.53;5005388;28;20081;-70
2022/03/31 03:56:00;;;;;;;53.17;32.75;;;5.60;99.90;;;5.06;100.00;95663.91;5012235;28;20179;-70
2022/03/31 03:58:27;;;;;;;41.67;28.35;;;5.50;99.90;;;5.23;100.00;95661.31;5002021;28;20068;-70
2022/03/31 04:00:54;;;;;;;36.67;25.80;;;5.50;99.90;;;5.16;100.00;95663.38;4998413;28;20054;-70
2022/03/31 04:03:22;;;;;;;36.10;24.25;;;5.60;99.90;;;4.93;100.00;95661.16;5005724;28;20420;-70
2022/03/31 04:05:50;;;;;;;45.90;29.85;;;5.60;99.90;;;4.92;100.00;95662.88;5004852;28;20129;-71
2022/03/31 04:08:17;;;;;;;58.38;36.92;;;5.50;99.90;;;4.83;100.00;95663.34;5006177;28;20127;-70
2022/03/31 04:10:44;;;;;;;51.70;33.58;;;5.40;99.90;;;4.65;100.00;95665.09;5005765;28;20041;-70
2022/03/31 04:13:11;;;;;;;46.78;31.52;;;5.30;99.90;;;4.49;100.00;95659.88;5020094;28;20129;-70
2022/03/31 04:15:39;;;;;;;72.63;44.40;;;5.30;99.90;;;4.60;100.00;95665.31;5003717;28;20081;-71
2022/03/31 04:18:08;;;;;;;67.18;40.28;;;5.20;99.90;;;4.64;100.00;95665.19;5005361;28;20046;-72
2022/03/31 04:20:36;;;;;;;53.33;33.83;;;5.20;99.90;;;4.53;100.00;95669.09;5009766;28;20415;-70
2022/03/31 04:23:05;;;;;;;54.58;33.38;;;5.20;99.90;;;4.71;100.00;95666.53;5009455;28;20133;-71
2022/03/31 04:25:33;;;;;;;61.97;38.45;;;5.30;99.90;;;4.73;100.00;95672.44;5008838;28;20145;-70
2022/03/31 04:28:00;;;;;;;71.40;40.00;;;5.30;99.90;;;4.85;100.00;95663.28;5009401;28;20080;-70
2022/03/31 04:30:27;;;;;;;70.82;42.90;;;5.30;99.90;;;4.78;100.00;95665.31;5005683;28;20080;-70
2022/03/31 04:32:54;;;;;;;77.75;44.08;;;5.30;99.90;;;4.81;100.00;95665.16;5008892;28;20081;-70
2022/03/31 04:35:21;;;;;;;76.88;45.85;;;5.30;99.90;;;4.70;100.00;95668.28;5023668;28;20049;-70
2022/03/31 04:37:48;;;;;;;63.03;40.75;;;5.30;99.90;;;4.69;100.00;95664.03;5005444;28;20065;-70
2022/03/31 04:40:15;;;;;;;61.95;38.88;;;5.40;99.90;;;4.65;100.00;95659.94;5004634;28;20153;-71
2022/03/31 04:42:43;;;;;;;79.60;46.22;;;5.40;99.90;;;4.70;100.00;95655.44;5007022;28;20113;-71
2022/03/31 04:45:10;;;;;;;91.07;50.40;;;5.40;99.90;;;4.64;100.00;95657.47;5006975;28;20133;-71
2022/03/31 04:47:38;;;;;;;83.57;47.00;;;5.30;99.90;;;4.66;100.00;95664.19;5000365;28;20074;-70
2022/03/31 04:50:12;;;;;;;79.15;45.17;;;5.40;99.90;;;4.76;100.00;95656.84;5001971;28;20929;-70
2022/03/31 04:52:41;;;;;;;76.75;46.17;;;5.30;99.90;;;4.77;100.00;95659.34;4992278;28;20116;-70
2022/03/31 04:55:09;;;;;;;87.38;47.03;;;5.30;99.90;;;4.68;100.00;95656.41;5002729;28;20104;-70
2022/03/31 04:57:36;;;;;;;82.20;48.13;;;5.40;99.90;;;4.79;100.00;95654.97;5004385;28;20507;-70
2022/03/31 05:00:05;;;;;;;71.00;42.65;;;5.30;99.90;;;4.67;100.00;95655.56;5006955;28;20058;-70
2022/03/31 05:02:32;;;;;;;79.10;45.75;;;5.40;99.90;;;4.67;100.00;95653.00;5007221;28;20491;-70
2022/03/31 05:05:00;;;;;;;85.60;48.67;;;5.40;99.90;;;4.60;100.00;95656.78;5006184;28;20042;-70
2022/03/31 05:07:27;;;;;;;82.50;47.35;;;5.30;99.90;;;4.54;100.00;95657.94;5002819;28;20503;-70
2022/03/31 05:09:54;;;;;;;72.25;42.65;;;5.30;99.90;;;4.64;100.00;95657.47;5002971;28;20153;-70
2022/03/31 05:12:21;;;;;;;61.28;39.47;;;5.30;99.90;;;4.78;100.00;95660.19;5007100;28;20153;-70
2022/03/31 05:14:48;;;;;;;76.18;45.50;;;5.40;99.90;;;4.72;100.00;95660.47;5007978;28;20137;-70
2022/03/31 05:17:15;;;;;;;67.15;39.97;;;5.40;99.90;;;4.80;100.00;95655.78;5003845;28;20054;-70
2022/03/31 05:19:42;;;;;;;72.03;44.45;;;5.40;99.90;;;4.79;100.00;95654.97;5017995;28;20050;-70
2022/03/31 05:22:09;;;;;;;86.93;47.85;;;5.40;99.90;;;4.79;100.00;95641.28;5005264;28;20132;-70
2022/03/31 05:24:36;;;;;;;80.13;46.22;;;5.40;99.90;;;4.74;100.00;95649.22;5003055;28;20058;-71
2022/03/31 05:27:04;;;;;;;77.05;44.80;;;5.40;99.90;;;4.57;100.00;95647.50;5002621;28;20685;-70
2022/03/31 05:29:31;;;;;;;66.07;41.55;;;5.30;99.90;;;4.63;100.00;95654.09;5002405;28;20042;-71
2022/03/31 05:31:59;;;;;;;60.80;38.78;;;5.30;99.90;;;4.85;100.00;95648.66;5007131;28;20051;-72
2022/03/31 05:34:26;;;;;;;77.25;44.85;;;5.40;99.90;;;4.79;100.00;95652.41;5005564;28;20057;-71
2022/03/31 05:36:54;;;;;;;71.93;43.83;;;5.30;99.90;;;4.67;100.00;95654.75;5003068;28;20056;-71
2022/03/31 05:39:20;;;;;;;73.72;43.92;;;5.30;99.90;;;4.69;100.00;95651.19;4998901;28;20531;-71
2022/03/31 05:41:47;;;;;;;78.25;44.67;;;5.40;99.90;;;4.49;100.00;95653.91;5006921;28;20043;-71
2022/03/31 05:44:15;;;;;;;70.10;43.78;;;5.30;99.90;;;4.54;100.00;95647.66;5007894;28;20129;-71
2022/03/31 05:46:44;;;;;;;76.40;44.38;;;5.30;99.90;;;4.55;100.00;95654.44;5002092;28;20082;-71
2022/03/31 05:49:11;;;;;;;71.47;44.15;;;5.30;99.90;;;4.60;100.00;95649.91;5010719;28;20058;-71
2022/03/31 05:51:38;;;;;;;73.03;42.05;;;5.20;99.90;;;4.53;100.00;95653.69;5005747;28;20104;-71
2022/03/31 05:54:05;;;;;;;69.65;41.00;;;5.20;99.90;;;4.72;100.00;95650.19;5016454;28;20488;-71
2022/03/31 05:56:34;;;;;;;82.70;46.63;;;5.30;99.90;;;4.65;100.00;95651.41;5005378;28;20042;-71
2022/03/31 05:59:01;;;;;;;76.03;42.70;;;5.30;99.90;;;4.80;100.00;95642.94;4997086;28;20164;-71
2022/03/31 06:01:28;;;;;;;71.70;40.50;;;5.40;99.90;;;4.99;100.00;95642.81;5004855;28;20053;-71
2022/03/31 06:03:55;;;;;;;59.85;38.53;;;5.50;99.90;;;5.23;100.00;95643.31;5001524;28;20496;-71
2022/03/31 06:06:23;;;;;;;68.43;40.40;;;5.70;99.90;;;5.33;100.00;95644.47;5014981;28;20496;-71
2022/03/31 06:08:51;;;;;;;85.28;44.30;;;5.80;99.90;;;5.33;100.00;95644.47;5001845;28;20077;-70
2022/03/31 06:11:18;;;;;;;79.80;43.15;;;5.90;99.90;;;5.22;100.00;95633.91;5003259;28;20104;-71
2022/03/31 06:13:45;;;;;;;79.00;43.67;;;5.90;99.90;;;5.20;100.00;95636.59;5002892;28;20104;-71
2022/03/31 06:16:13;;;;;;;86.10;44.03;;;5.90;99.90;;;5.05;100.00;95637.38;5003131;28;20175;-71
2022/03/31 06:18:40;;;;;;;87.68;44.75;;;5.80;99.90;;;5.15;100.00;95637.72;5002297;28;20125;-70
2022/03/31 06:21:08;;;;;;;86.43;45.15;;;5.80;99.90;;;5.20;100.00;95641.72;5000257;28;20084;-71
2022/03/31 06:23:35;;;;;;;80.43;42.70;;;5.90;99.90;;;5.55;100.00;95636.44;5003928;28;20164;-71
2022/03/31 06:26:02;;;;;;;73.72;42.13;;;6.10;99.90;;;5.58;100.00;95641.41;5003962;28;20432;-70
2022/03/31 06:28:31;;;;;;;64.50;35.55;;;6.10;99.90;;;5.82;100.00;95636.69;5002924;28;20125;-71
2022/03/31 06:30:58;;;;;;;68.88;38.42;;;6.30;99.90;;;5.93;100.00;95630.97;5004263;28;20094;-71
2022/03/31 06:33:25;;;;;;;62.42;35.88;;;6.40;99.90;;;6.17;100.00;95625.38;5002781;28;20137;-70
2022/03/31 06:35:52;;;;;;;63.30;37.50;;;6.50;99.90;;;6.08;100.00;95619.00;4998895;28;20664;-71
2022/03/31 06:38:20;;;;;;;71.70;41.95;;;6.60;99.90;;;5.83;100.00;95619.50;4997429;28;20442;-71
2022/03/31 06:41:06;;;;;;;76.15;41.58;;;6.50;99.90;;;5.57;100.00;95619.19;5003025;28;20054;-71
2022/03/31 06:43:35;;;;;;;69.82;37.80;;;6.30;99.90;;;5.73;100.00;95626.09;5003162;28;20050;-71
2022/03/31 06:46:03;;;;;;;59.45;36.28;;;6.40;99.90;;;5.69;100.00;95622.84;4999176;28;20134;-72
2022/03/31 06:48:31;;;;;;;72.80;40.45;;;6.40;99.90;;;5.53;100.00;95622.00;5005230;28;20096;-69
2022/03/31 06:50:58;;;;;;;67.65;38.95;;;6.40;99.90;;;5.55;100.00;95617.63;5004129;28;20088;-71
2022/03/31 06:53:26;;;;;;;63.95;38.05;;;6.30;99.90;;;5.62;100.00;95621.50;5004934;28;20045;-71
2022/03/31 06:55:53;;;;;;;63.13;37.80;;;6.40;99.90;;;5.67;100.00;95619.50;4996987;28;20058;-71
2022/03/31 06:58:25;;;;;;;69.28;39.63;;;6.40;99.90;;;5.60;100.00;95618.19;5004144;28;20917;-71
2022/03/31 07:00:53;;;;;;;56.92;36.75;;;6.30;99.90;;;5.61;100.00;95623.25;5005803;28;20041;-71
2022/03/31 07:03:20;;;;;;;56.72;35.50;;;6.30;99.90;;;5.84;100.00;95616.03;4999463;28;20114;-71
2022/03/31 07:05:47;;;;;;;61.13;37.65;;;6.40;99.90;;;5.47;100.00;95614.59;4995704;28;20465;-71
2022/03/31 07:08:14;;;;;;;63.22;39.33;;;6.20;99.90;;;5.29;100.00;95619.84;5003054;28;20137;-71
2022/03/31 07:10:41;;;;;;;61.35;37.67;;;6.10;99.90;;;5.16;100.00;95611.09;5002908;28;20386;-71
2022/03/31 07:13:08;;;;;;;71.63;40.53;;;6.00;99.90;;;5.07;100.00;95612.41;5005748;28;20062;-71
2022/03/31 07:15:36;;;;;;;67.35;41.10;;;5.90;99.90;;;5.01;100.00;95616.13;5003543;28;20053;-71
2022/03/31 07:18:05;;;;;;;57.40;35.78;;;5.80;99.90;;;5.22;100.00;95623.63;4993919;28;20073;-71
2022/03/31 07:20:34;;;;;;;65.30;39.95;;;5.80;99.90;;;5.02;100.00;95616.97;5014719;28;20209;-71
2022/03/31 07:23:02;;;;;;;103.35;60.88;;;5.80;99.90;;;5.06;100.00;95623.59;5003166;28;20077;-70
2022/03/31 07:25:29;;;;;;;80.20;50.22;;;5.80;99.90;;;5.15;100.00;95625.69;5001059;28;20142;-70
2022/03/31 07:27:57;;;;;;;85.47;47.30;;;5.90;99.90;;;5.21;100.00;95614.25;5002786;28;20125;-70
2022/03/31 07:30:25;;;;;;;88.25;52.17;;;5.90;99.90;;;5.14;100.00;95623.22;4965065;28;1095568;-71
2022/03/31 07:33:02;;;;;;;76.82;46.80;;;5.90;99.90;;;5.18;100.00;95622.16;5002517;28;20172;-70
2022/03/31 07:35:32;;;;;;;121.20;71.97;;;5.90;99.90;;;5.56;100.00;95621.84;5002700;28;20092;-70
2022/03/31 07:38:03;;;;;;;80.55;49.85;;;6.10;99.90;;;5.46;100.00;95621.50;4994912;28;20125;-70
2022/03/31 07:40:31;;;;;;;110.22;65.22;;;6.20;99.90;;;5.40;100.00;95622.66;5000435;28;20072;-70
2022/03/31 07:42:58;;;;;;;97.25;59.70;;;6.10;99.90;;;5.34;100.00;95628.13;4998796;28;20115;-71
2022/03/31 07:45:25;;;;;;;128.55;75.13;;;6.00;99.90;;;5.21;100.00;95627.94;5003421;28;20150;-71
2022/03/31 07:47:52;;;;;;;84.20;51.58;;;6.00;99.90;;;5.13;100.00;95634.41;4998777;28;20111;-71
2022/03/31 07:50:21;;;;;;;64.18;41.28;;;5.90;99.90;;;5.24;100.00;95630.38;5000404;28;20122;-70
2022/03/31 07:52:49;;;;;;;60.47;40.58;;;6.00;99.90;;;5.11;100.00;95631.06;4995812;28;20834;-70
2022/03/31 07:55:19;;;;;;;83.32;54.90;;;6.00;99.90;;;5.09;100.00;95636.31;5003057;28;20088;-71
2022/03/31 07:57:47;;;;;;;67.47;41.67;;;5.90;99.90;;;4.90;100.00;95633.00;5003347;28;20052;-71
2022/03/31 08:00:16;;;;;;;73.57;44.92;;;5.80;99.90;;;4.90;100.00;95636.41;5004112;28;20148;-70
2022/03/31 08:02:48;;;;;;;63.88;39.92;;;5.70;99.90;;;5.01;100.00;95630.72;4999745;28;20066;-71
2022/03/31 08:05:21;;;;;;;61.80;40.47;;;5.70;99.90;;;5.14;100.00;95631.75;5000764;28;20053;-70
2022/03/31 08:07:49;;;;;;;67.03;40.40;;;5.70;99.90;;;4.89;100.00;95634.75;5004720;28;20042;-70
2022/03/31 08:10:17;;;;;;;61.50;39.05;;;5.70;99.90;;;4.74;100.00;95630.41;5017057;28;20130;-70
2022/03/31 08:12:45;;;;;;;62.72;38.58;;;5.60;99.90;;;4.63;100.00;95632.66;5002318;28;20054;-70
2022/03/31 08:15:16;;;;;;;58.22;36.53;;;5.60;99.90;;;4.74;100.00;95633.78;5022017;28;20085;-71
2022/03/31 08:17:46;;;;;;;59.80;38.33;;;5.60;99.90;;;4.61;100.00;95630.19;5001955;28;20085;-71
2022/03/31 08:20:14;;;;;;;63.05;38.38;;;5.50;99.90;;;4.73;100.00;95628.75;5018165;28;20048;-70
2022/03/31 08:22:42;;;;;;;64.10;38.53;;;5.50;99.90;;;4.75;100.00;95635.47;4998433;28;20053;-70
2022/03/31 08:25:10;;;;;;;51.28;33.30;;;5.50;99.90;;;4.66;100.00;95641.06;4999895;28;20052;-70
2022/03/31 08:27:39;;;;;;;51.90;33.40;;;5.60;99.90;;;4.78;100.00;95643.00;5004332;28;20049;-70
2022/03/31 08:30:10;;;;;;;53.25;34.42;;;5.60;99.90;;;4.92;100.00;95636.34;5017335;28;20065;-70
2022/03/31 08:32:39;;;;;;;56.65;36.17;;;5.60;99.90;;;4.83;100.00;95640.22;4999870;28;20187;-70
2022/03/31 08:35:08;;;;;;;55.15;35.50;;;5.60;99.90;;;4.64;100.00;95645.44;5014130;28;20075;-71
2022/03/31 08:37:36;;;;;;;57.55;35.67;;;5.50;99.90;;;4.54;100.00;95639.94;4999735;28;20165;-71
2022/03/31 08:40:06;;;;;;;52.38;33.75;;;5.40;99.90;;;4.65;100.00;95641.13;5003962;28;20088;-70
2022/03/31 08:42:33;;;;;;;52.38;33.67;;;5.40;99.90;;;4.72;100.00;95639.91;4998754;28;20094;-71
2022/03/31 08:45:02;;;;;;;54.15;33.90;;;5.50;99.90;;;4.86;100.00;95631.50;4996013;28;20049;-70
2022/03/31 08:47:30;;;;;;;58.47;38.25;;;5.60;99.90;;;4.93;100.00;95627.75;5001393;28;20073;-71
2022/03/31 08:50:16;;;;;;;49.88;33.33;;;5.60;99.90;;;4.73;100.00;95626.19;5000738;28;20077;-70
2022/03/31 08:52:43;;;;;;;56.33;32.75;;;5.60;99.90;;;4.80;100.00;95624.94;4999680;28;20366;-70
2022/03/31 08:55:12;;;;;;;53.22;33.45;;;5.50;99.90;;;4.69;100.00;95627.22;4998313;28;20069;-71
2022/03/31 08:57:44;;;;;;;49.65;31.50;;;5.50;99.90;;;4.54;100.00;95629.66;5005562;28;20455;-70
2022/03/31 09:00:14;;;;;;;52.57;31.63;;;5.50;99.90;;;4.56;100.00;95634.72;5000975;28;20167;-70
2022/03/31 09:02:54;;;;;;;46.92;28.92;;;5.40;99.90;;;4.84;100.00;95631.59;4996768;28;20305;-70
2022/03/31 09:05:22;;;;;;;51.72;30.60;;;5.60;99.90;;;4.78;100.00;95624.19;5007159;28;20041;-71
2022/03/31 09:08:00;;;;;;;47.15;28.45;;;5.60;99.90;;;4.67;100.00;95626.47;5001958;28;20042;-70
2022/03/31 09:10:31;;;;;;;43.78;27.80;;;5.50;99.90;;;4.87;100.00;95631.44;5005541;28;20535;-71
2022/03/31 09:13:03;;;;;;;43.13;27.42;;;5.70;99.90;;;5.10;100.00;95622.53;5003564;28;20081;-71
2022/03/31 09:15:34;;;;;;;47.10;28.15;;;5.80;99.90;;;5.07;100.00;95627.84;5004093;28;20128;-71
2022/03/31 09:18:02;;;;;;;43.58;27.55;;;5.90;99.90;;;4.93;100.00;95623.41;4999202;28;20424;-70
2022/03/31 09:20:39;;;;;;;38.55;25.65;;;5.80;99.90;;;5.22;100.00;95627.06;5007538;28;20141;-71
2022/03/31 09:23:14;;;;;;;38.20;23.83;;;6.10;99.90;;;5.45;100.00;95620.69;5005632;28;20096;-71
2022/03/31 09:25:42;;;;;;;42.50;27.05;;;6.30;99.90;;;5.64;100.00;95625.66;5001458;28;20073;-70
2022/03/31 09:28:21;;;;;;;38.63;24.52;;;6.40;99.90;;;5.85;100.00;95626.22;5005916;28;20137;-70
2022/03/31 09:30:51;;;;;;;35.42;24.35;;;6.50;99.90;;;5.81;100.00;95624.72;5006428;28;20042;-70
2022/03/31 09:33:33;;;;;;;36.15;23.67;;;6.60;99.90;;;5.84;100.00;95622.00;5005539;28;20134;-71
2022/03/31 09:36:14;;;;;;;35.63;23.20;;;6.70;99.90;;;5.71;100.00;95621.00;5017591;28;20125;-70
2022/03/31 09:39:00;;;;;;;41.13;26.73;;;6.60;99.90;;;5.89;100.00;95623.50;5002681;28;20088;-70
2022/03/31 09:41:34;;;;;;;35.78;22.48;;;6.60;99.90;;;5.70;100.00;95621.09;5000962;28;20126;-70
2022/03/31 09:44:08;;;;;;;38.92;25.70;;;6.60;99.90;;;5.69;100.00;95624.59;5016634;28;20112;-70
2022/03/31 09:46:38;;;;;;;38.78;24.20;;;6.40;99.90;;;5.48;100.00;95624.81;5002155;28;20086;-70
2022/03/31 09:49:27;;;;;;;34.15;21.73;;;6.40;99.90;;;5.64;100.00;95619.69;5002838;28;20045;-70
2022/03/31 09:52:01;;;;;;;37.85;24.80;;;6.40;99.90;;;5.50;100.00;95624.75;5000457;28;21110;-70
2022/03/31 09:54:32;;;;;;;42.60;26.30;;;6.30;99.90;;;5.29;100.00;95621.56;4999298;28;20129;-71
2022/03/31 09:57:03;;;;;;;38.33;23.52;;;6.20;99.90;;;5.33;100.00;95623.88;4987170;28;20046;-71
2022/03/31 09:59:34;;;;;;;42.58;26.45;;;6.20;99.90;;;5.39;100.00;95625.31;5018857;28;20089;-71
2022/03/31 10:02:02;;;;;;;39.67;23.98;;;6.10;99.90;;;5.38;100.00;95615.94;5005117;28;20133;-70
2022/03/31 10:04:31;;;;;;;38.20;24.85;;;6.20;99.90;;;5.52;100.00;95623.75;5002054;28;20060;-71
2022/03/31 10:07:00;;;;;;;35.13;23.08;;;6.30;99.90;;;5.40;100.00;95619.25;4986582;28;20042;-70
2022/03/31 10:09:26;;;;;;;43.17;25.83;;;6.30;99.90;;;5.43;100.00;95617.34;5002356;28;20122;-71
2022/03/31 10:12:33;;;;;;;40.10;25.08;;;6.30;99.90;;;5.50;100.00;95614.47;5000075;28;20085;-70
2022/03/31 10:15:13;;;;;;;39.28;24.50;;;6.20;99.90;;;5.28;100.00;95623.31;5010181;28;20051;-71
2022/03/31 10:17:42;;;;;;;41.85;26.23;;;6.30;99.90;;;5.32;100.00;95617.09;4991430;28;20038;-71
2022/03/31 10:20:15;;;;;;;50.13;31.02;;;6.20;99.90;;;5.43;100.00;95613.97;4987561;28;20077;-70
2022/03/31 10:25:42;;;;;;;40.72;26.35;;;6.30;99.90;;;5.42;100.00;95620.00;5004042;28;20005;-70